Time;durP1;ratioP1;P1;durP2;ratioP2;P2;SDS_P1;SDS_P2;PMS_P1;PMS_P2;Temp;Humidity;BMP_temperature;BMP_pressure;BME280_temperature;BME280_humidity;BME280_pressure;Samples;Min_cycle;Max_cycle;Signal;HPM_P1;HPM_P2
2021/12/10 00:01:16;;;;;;;9.73;1.27;;;;;;;1.49;77.72;97332.78;5060918;28;20304;-56
2021/12/10 00:03:47;;;;;;;2.93;1.03;;;;;;;1.47;76.61;97332.94;5063561;28;20194;-57
2021/12/10 00:06:18;;;;;;;5.27;1.00;;;;;;;1.53;77.22;97331.59;5062875;28;20663;-56
2021/12/10 00:08:49;;;;;;;4.07;1.10;;;;;;;1.41;78.35;97319.75;5062102;28;20226;-57
2021/12/10 00:11:21;;;;;;;4.60;1.30;;;;;;;1.32;78.99;97321.31;5061352;28;20301;-57
2021/12/10 00:13:49;;;;;;;5.90;1.27;;;;;;;1.36;78.39;97311.59;5055909;28;20189;-56
2021/12/10 00:16:18;;;;;;;2.30;0.90;;;;;;;1.37;77.69;97300.34;5062710;28;20214;-56
2021/12/10 00:18:51;;;;;;;7.90;1.13;;;;;;;1.40;77.00;97302.69;5061833;28;20225;-56
2021/12/10 00:21:19;;;;;;;6.13;1.00;;;;;;;1.40;77.88;97295.78;5062752;28;20218;-56
2021/12/10 00:23:49;;;;;;;7.10;1.37;;;;;;;1.38;78.16;97295.09;5065978;28;20183;-59
2021/12/10 00:26:20;;;;;;;7.90;1.40;;;;;;;1.45;78.44;97285.13;5061634;28;20259;-59
2021/12/10 00:28:49;;;;;;;5.83;1.20;;;;;;;1.50;76.71;97280.41;5061891;28;20191;-58
2021/12/10 00:31:30;;;;;;;5.80;1.30;;;;;;;1.48;77.00;97274.56;5059617;28;20575;-57
2021/12/10 00:34:05;;;;;;;8.90;1.10;;;;;;;1.43;77.21;97266.44;5060212;28;20197;-58
2021/12/10 00:36:33;;;;;;;8.10;1.23;;;;;;;1.37;77.95;97261.78;5069660;28;20213;-58
2021/12/10 00:39:02;;;;;;;7.47;1.20;;;;;;;1.44;76.66;97260.34;5061467;28;20220;-57
2021/12/10 00:41:30;;;;;;;5.67;1.30;;;;;;;1.51;75.93;97252.94;5062543;28;20273;-58
2021/12/10 00:43:57;;;;;;;6.97;1.00;;;;;;;1.42;77.32;97234.78;5065362;28;20194;-58
2021/12/10 00:46:24;;;;;;;7.47;1.30;;;;;;;1.29;76.79;97229.81;5064530;28;20880;-58
2021/12/10 00:48:50;;;;;;;6.17;1.40;;;;;;;1.18;77.72;97222.16;5061390;28;20193;-58
2021/12/10 00:51:17;;;;;;;4.27;1.03;;;;;;;1.23;77.82;97217.47;5061164;28;20214;-58
2021/12/10 00:53:45;;;;;;;6.83;1.07;;;;;;;1.20;77.92;97206.63;5062650;28;20194;-58
2021/12/10 00:56:12;;;;;;;6.27;1.70;;;;;;;1.16;77.73;97201.75;5061553;28;20210;-58
2021/12/10 00:58:41;;;;;;;5.53;1.40;;;;;;;1.14;78.65;97179.66;5061990;28;20186;-57
2021/12/10 01:01:13;;;;;;;9.97;1.50;;;;;;;1.05;78.64;97172.75;5061438;28;20637;-58
2021/12/10 01:03:44;;;;;;;4.27;0.80;;;;;;;1.11;78.32;97165.34;5064530;28;20198;-58
2021/12/10 01:06:14;;;;;;;5.63;0.97;;;;;;;1.11;78.27;97164.50;5063313;28;20185;-58
2021/12/10 01:08:45;;;;;;;5.27;1.10;;;;;;;1.09;77.95;97150.97;5060502;28;20188;-58
2021/12/10 01:11:16;;;;;;;4.80;0.90;;;;;;;1.11;78.20;97137.06;5060637;28;20245;-58
2021/12/10 01:13:47;;;;;;;6.23;2.33;;;;;;;1.09;78.11;97140.69;5060897;28;20277;-57
2021/12/10 01:25:04;;;;;;;2.30;0.70;;;;;;;1.16;77.22;97134.09;5034406;28;20229;-58
2021/12/10 01:27:34;;;;;;;11.67;0.97;;;;;;;1.20;76.69;97124.38;5061212;28;20186;-58
2021/12/10 01:30:15;;;;;;;4.57;0.93;;;;;;;1.17;76.73;97120.31;5060232;28;20202;-59
2021/12/10 01:32:44;;;;;;;6.17;1.27;;;;;;;1.21;76.13;97105.44;5058063;28;20191;-58
2021/12/10 01:35:15;;;;;;;5.13;0.80;;;;;;;1.12;76.71;97107.84;5062882;28;20268;-58
2021/12/10 01:37:42;;;;;;;5.03;0.90;;;;;;;1.13;76.39;97086.34;5060310;28;20269;-57
2021/12/10 01:40:10;;;;;;;4.10;0.83;;;;;;;1.11;76.38;97085.66;5061477;28;20209;-58
2021/12/10 01:42:44;;;;;;;6.73;0.83;;;;;;;1.10;76.40;97068.63;5061978;28;20667;-58
2021/12/10 01:45:20;;;;;;;5.17;0.93;;;;;;;1.21;76.08;97070.28;5060016;28;20241;-58
2021/12/10 01:47:56;;;;;;;5.10;1.00;;;;;;;1.16;76.57;97057.81;5060029;28;20179;-58
2021/12/10 01:50:24;;;;;;;6.23;1.00;;;;;;;1.13;77.47;97062.38;5061825;28;20201;-58
2021/12/10 01:52:53;;;;;;;3.40;0.80;;;;;;;1.15;76.24;97063.06;5059966;28;20574;-57
2021/12/10 01:55:21;;;;;;;3.37;1.10;;;;;;;1.07;76.78;97052.63;5060434;28;20198;-58
2021/12/10 01:57:49;;;;;;;3.60;1.03;;;;;;;1.06;77.04;97040.75;5062131;28;20192;-58
2021/12/10 02:00:22;;;;;;;4.97;1.00;;;;;;;1.05;76.71;97041.69;5059337;28;20206;-58
2021/12/10 02:02:50;;;;;;;4.57;0.70;;;;;;;0.98;77.64;97038.81;5059576;28;20197;-58
2021/12/10 02:05:18;;;;;;;7.73;1.47;;;;;;;1.07;77.38;97037.22;5061382;28;20261;-58
2021/12/10 02:07:47;;;;;;;3.60;0.63;;;;;;;0.99;77.74;97030.16;5061715;28;20228;-58
2021/12/10 02:10:18;;;;;;;3.07;0.83;;;;;;;0.94;78.12;97028.00;5059510;28;20212;-58
2021/12/10 02:12:45;;;;;;;4.63;0.90;;;;;;;0.95;76.73;97026.22;5053318;28;20209;-57
2021/12/10 02:15:14;;;;;;;3.80;0.70;;;;;;;0.93;76.70;97012.69;5050512;28;20629;-58
2021/12/10 02:17:45;;;;;;;4.60;0.93;;;;;;;0.92;78.04;97009.31;5051150;28;20278;-58
2021/12/10 02:20:17;;;;;;;5.50;0.87;;;;;;;0.87;77.21;97007.13;5054753;28;20222;-58
2021/12/10 02:22:46;;;;;;;6.87;1.27;;;;;;;0.93;76.99;96995.53;5071145;28;20281;-57
2021/12/10 02:25:18;;;;;;;4.97;0.97;;;;;;;1.03;75.70;96993.81;5070972;28;20559;-58
2021/12/10 02:27:45;;;;;;;3.80;0.93;;;;;;;0.95;76.59;96977.41;5070809;28;20190;-58
2021/12/10 02:30:15;;;;;;;4.13;0.70;;;;;;;0.92;76.16;96972.53;5069793;28;20209;-58
2021/12/10 02:32:42;;;;;;;11.13;1.00;;;;;;;0.88;76.83;96961.72;5071506;28;20259;-56
2021/12/10 02:35:11;;;;;;;3.33;0.97;;;;;;;0.79;76.78;96947.09;5060949;28;20254;-59
2021/12/10 02:37:38;;;;;;;6.93;0.93;;;;;;;0.75;76.89;96943.16;5070652;28;20193;-58
2021/12/10 02:40:09;;;;;;;7.53;2.10;;;;;;;0.67;77.26;96934.34;5069673;28;20243;-58
2021/12/10 02:42:36;;;;;;;5.33;0.90;;;;;;;0.59;78.10;96918.78;5071111;28;20217;-59
2021/12/10 02:45:04;;;;;;;5.77;0.80;;;;;;;0.60;78.18;96910.13;5066099;28;20187;-57
2021/12/10 02:47:31;;;;;;;6.50;0.73;;;;;;;0.61;78.14;96903.22;5063516;28;20224;-58
2021/12/10 02:49:58;;;;;;;4.27;0.67;;;;;;;0.63;77.04;96885.94;5066801;28;20532;-59
2021/12/10 02:52:27;;;;;;;4.47;0.87;;;;;;;0.56;76.69;96880.53;5068486;28;20716;-58
2021/12/10 02:54:53;;;;;;;7.27;0.70;;;;;;;0.51;78.12;96880.09;5071686;28;20593;-59
2021/12/10 02:57:22;;;;;;;3.00;0.83;;;;;;;0.44;78.61;96869.56;5071580;28;20602;-59
2021/12/10 02:59:49;;;;;;;3.97;0.67;;;;;;;0.46;79.68;96859.13;5070802;28;20308;-59
2021/12/10 03:02:18;;;;;;;4.03;0.90;;;;;;;0.44;79.91;96854.94;5071468;28;20195;-58
2021/12/10 03:04:46;;;;;;;4.10;1.20;;;;;;;0.46;80.34;96851.44;5070107;28;20194;-59
2021/12/10 03:07:15;;;;;;;5.53;0.90;;;;;;;0.36;80.17;96841.16;5069382;28;20194;-58
2021/12/10 03:09:44;;;;;;;9.47;3.10;;;;;;;0.28;80.79;96832.34;5062293;28;20194;-59
2021/12/10 03:12:13;;;;;;;6.32;1.42;;;;;;;0.19;81.37;96824.59;5070461;28;20453;-59
2021/12/10 03:14:43;;;;;;;3.23;0.97;;;;;;;0.13;82.32;96815.69;5068846;28;20197;-58
2021/12/10 03:17:14;;;;;;;7.20;1.00;;;;;;;0.12;82.55;96808.94;5069458;28;20224;-58
2021/12/10 03:19:41;;;;;;;4.33;0.70;;;;;;;-0.03;82.57;96818.75;5070615;28;20194;-58
2021/12/10 03:22:08;;;;;;;3.50;0.90;;;;;;;-0.08;83.05;96813.19;5071274;28;20216;-56
2021/12/10 03:24:36;;;;;;;2.97;0.87;;;;;;;-0.03;83.02;96804.16;5071380;28;20262;-55
2021/12/10 03:27:06;;;;;;;4.40;0.90;;;;;;;-0.13;83.16;96811.00;5069363;28;20190;-59
2021/12/10 03:29:36;;;;;;;2.80;0.90;;;;;;;-0.13;82.93;96807.63;5070720;28;20195;-58
2021/12/10 03:32:07;;;;;;;4.40;0.90;;;;;;;-0.19;83.62;96804.63;5071003;28;20576;-58
2021/12/10 03:34:35;;;;;;;3.20;0.70;;;;;;;-0.26;83.56;96807.81;5071351;28;20200;-59
2021/12/10 03:37:02;;;;;;;3.50;0.80;;;;;;;-0.30;83.90;96814.97;5071338;28;20264;-58
2021/12/10 03:39:29;;;;;;;6.23;0.57;;;;;;;-0.26;83.50;96805.25;5071349;28;20190;-57
2021/12/10 03:41:58;;;;;;;2.90;0.70;;;;;;;-0.30;83.72;96799.59;5074182;28;20686;-59
2021/12/10 03:44:26;;;;;;;3.43;0.67;;;;;;;-0.32;83.22;96796.34;5074917;28;20193;-58
2021/12/10 03:46:54;;;;;;;3.50;0.67;;;;;;;-0.34;82.95;96793.09;5074804;28;20189;-58
2021/12/10 03:49:22;;;;;;;3.10;0.77;;;;;;;-0.35;83.59;96794.03;5073742;28;20251;-54
2021/12/10 03:51:49;;;;;;;1.00;0.50;;;;;;;-0.41;84.04;96791.97;5072413;28;20567;-57
2021/12/10 03:54:17;;;;;;;2.13;0.50;;;;;;;-0.43;83.42;96788.72;5059757;28;20225;-57
2021/12/10 03:56:45;;;;;;;4.83;0.60;;;;;;;-0.57;84.12;96789.88;5069297;28;20204;-58
2021/12/10 03:59:14;;;;;;;2.80;0.50;;;;;;;-0.59;84.62;96782.28;5073766;28;20200;-58
2021/12/10 04:01:45;;;;;;;1.80;0.40;;;;;;;-0.58;85.16;96778.78;5072998;28;20199;-58
2021/12/10 04:04:15;;;;;;;1.83;0.40;;;;;;;-0.60;85.21;96775.53;5072530;28;20205;-58
2021/12/10 04:06:44;;;;;;;1.20;0.50;;;;;;;-0.58;85.11;96767.75;5073791;28;20181;-58
2021/12/10 04:09:12;;;;;;;4.23;0.50;;;;;;;-0.68;85.29;96762.53;5073750;28;20765;-57
2021/12/10 04:11:40;;;;;;;3.00;0.60;;;;;;;-0.76;85.66;96758.06;5072856;28;20680;-57
2021/12/10 04:14:07;;;;;;;3.33;0.63;;;;;;;-0.83;85.78;96752.63;5072187;28;20192;-57
2021/12/10 04:16:37;;;;;;;5.63;0.73;;;;;;;-0.82;84.85;96749.13;5073475;28;20214;-59
2021/12/10 04:19:06;;;;;;;6.10;1.00;;;;;;;-0.80;83.88;96743.88;5074178;28;20194;-58
2021/12/10 04:21:39;;;;;;;2.27;1.27;;;;;;;-0.71;83.58;96734.63;5072166;28;20219;-58
2021/12/10 04:24:10;;;;;;;3.70;0.60;;;;;;;-0.75;84.38;96732.31;5074417;28;20274;-58
2021/12/10 04:26:37;;;;;;;2.70;0.60;;;;;;;-0.80;84.23;96731.88;5074334;28;20182;-58
2021/12/10 04:29:04;;;;;;;3.77;0.70;;;;;;;-0.82;85.04;96717.56;5074555;28;20651;-57
2021/12/10 04:31:32;;;;;;;2.40;0.37;;;;;;;-0.84;85.36;96714.34;5072163;28;20215;-57
2021/12/10 04:33:59;;;;;;;2.57;0.53;;;;;;;-0.87;85.62;96706.91;5074332;28;20240;-57
2021/12/10 04:36:26;;;;;;;1.77;0.40;;;;;;;-0.91;85.93;96701.19;5074003;28;20250;-57
2021/12/10 04:38:52;;;;;;;3.03;0.63;;;;;;;-0.95;86.31;96699.81;5074432;28;20215;-57
2021/12/10 04:41:21;;;;;;;0.97;0.50;;;;;;;-0.98;85.92;96694.97;5073370;28;20571;-57
2021/12/10 04:43:48;;;;;;;4.03;0.83;;;;;;;-1.01;86.50;96684.97;5072918;28;20426;-57
2021/12/10 04:46:16;;;;;;;2.53;0.50;;;;;;;-1.04;86.61;96683.47;5072808;28;20949;-57
2021/12/10 04:48:47;;;;;;;4.00;0.60;;;;;;;-1.04;86.54;96679.16;5073992;28;20667;-57
2021/12/10 04:51:16;;;;;;;0.67;0.37;;;;;;;-1.00;86.22;96674.59;5072529;28;20216;-58
2021/12/10 04:53:43;;;;;;;1.77;0.30;;;;;;;-1.00;85.58;96669.50;5073362;28;20183;-59
2021/12/10 04:56:10;;;;;;;2.60;0.50;;;;;;;-1.01;85.74;96667.88;5073904;28;20296;-57
2021/12/10 04:58:39;;;;;;;2.23;0.50;;;;;;;-0.96;85.05;96660.63;5073683;28;20190;-58
2021/12/10 05:01:06;;;;;;;1.30;0.30;;;;;;;-0.97;85.24;96664.13;5072950;28;20230;-59
2021/12/10 05:03:32;;;;;;;2.23;0.50;;;;;;;-0.92;85.22;96648.34;5072531;28;20190;-59
2021/12/10 05:06:03;;;;;;;1.50;0.40;;;;;;;-0.99;85.42;96642.94;5073649;28;20178;-58
2021/12/10 05:08:31;;;;;;;2.97;0.70;;;;;;;-0.90;84.23;96636.22;5073656;28;20186;-58
2021/12/10 05:10:58;;;;;;;1.40;0.40;;;;;;;-0.82;84.12;96615.91;5072667;28;20767;-58
2021/12/10 05:13:25;;;;;;;3.30;1.00;;;;;;;-0.84;84.70;96611.88;5073418;28;20187;-58
2021/12/10 05:15:57;;;;;;;2.40;0.33;;;;;;;-0.87;84.83;96604.44;5073378;28;20190;-58
2021/12/10 05:18:26;;;;;;;2.43;0.60;;;;;;;-0.87;84.73;96602.69;5073413;28;20195;-58
2021/12/10 05:20:53;;;;;;;3.13;0.50;;;;;;;-0.90;85.97;96608.06;5072469;28;20202;-59
2021/12/10 05:23:22;;;;;;;1.17;0.47;;;;;;;-0.87;84.71;96600.13;5073296;28;20201;-58
2021/12/10 05:25:50;;;;;;;1.17;0.40;;;;;;;-0.97;85.35;96587.28;5071424;28;20188;-58
2021/12/10 05:28:17;;;;;;;3.23;0.60;;;;;;;-0.97;86.33;96592.41;5073178;28;20184;-58
2021/12/10 05:30:46;;;;;;;10.83;2.77;;;;;;;-0.93;86.18;96592.94;5072136;28;20289;-58
2021/12/10 05:33:17;;;;;;;4.87;1.03;;;;;;;-0.98;85.51;96590.78;5071912;28;20259;-53
2021/12/10 05:35:47;;;;;;;4.93;0.93;;;;;;;-0.94;85.43;96581.91;5072984;28;20194;-56
2021/12/10 05:38:14;;;;;;;8.43;3.00;;;;;;;-0.87;85.29;96576.25;5072917;28;20207;-54
2021/12/10 05:40:41;;;;;;;5.03;2.40;;;;;;;-0.88;85.08;96572.88;5072030;28;20619;-53
2021/12/10 05:43:08;;;;;;;1.00;0.60;;;;;;;-0.85;84.67;96559.81;5073064;28;20194;-52
2021/12/10 05:45:35;;;;;;;2.13;0.70;;;;;;;-0.79;83.99;96550.81;5072666;28;20186;-53
2021/12/10 05:48:02;;;;;;;2.63;0.60;;;;;;;-0.72;82.55;96541.66;5072913;28;20180;-55
2021/12/10 05:50:31;;;;;;;2.33;0.90;;;;;;;-0.60;81.53;96530.34;5071991;28;20213;-55
2021/12/10 05:52:58;;;;;;;1.30;0.70;;;;;;;-0.53;81.07;96522.94;5072604;28;20248;-54
2021/12/10 05:55:26;;;;;;;1.80;0.63;;;;;;;-0.39;78.46;96520.94;5072622;28;20552;-56
2021/12/10 05:57:54;;;;;;;7.17;2.60;;;;;;;-0.13;75.26;96510.94;5072485;28;20213;-52
2021/12/10 06:00:24;;;;;;;12.73;7.50;;;;;;;0.08;71.81;96503.06;5071715;28;20750;-53
2021/12/10 06:02:52;;;;;;;8.87;3.23;;;;;;;0.32;70.38;96490.75;5072378;28;20183;-56
2021/12/10 06:05:20;;;;;;;4.63;1.77;;;;;;;0.48;69.89;96479.91;5072592;28;20182;-55
2021/12/10 06:07:48;;;;;;;28.30;12.87;;;;;;;0.58;68.86;96475.53;5072480;28;20186;-57
2021/12/10 06:10:18;;;;;;;2.83;1.50;;;;;;;0.83;66.57;96476.66;5071545;28;20705;-55
2021/12/10 06:12:46;;;;;;;6.32;2.90;;;;;;;0.91;67.44;96468.25;5071714;28;20425;-57
2021/12/10 06:15:15;;;;;;;3.17;1.17;;;;;;;1.01;64.97;96466.44;5072407;28;20183;-56
2021/12/10 06:17:43;;;;;;;3.23;1.30;;;;;;;1.13;64.99;96477.31;5071923;28;20214;-57
2021/12/10 06:20:14;;;;;;;2.90;1.23;;;;;;;1.11;65.81;96476.63;5071433;28;20549;-56
2021/12/10 06:22:41;;;;;;;3.27;1.60;;;;;;;1.25;64.36;96469.38;5071838;28;20189;-58
2021/12/10 06:25:10;;;;;;;1.80;1.10;;;;;;;1.25;64.29;96466.81;5072089;28;20178;-56
2021/12/10 06:27:38;;;;;;;1.93;1.70;;;;;;;1.23;64.25;96453.31;5072157;28;20182;-57
2021/12/10 06:30:06;;;;;;;3.57;1.43;;;;;;;1.24;65.00;96447.22;5071593;28;20201;-56
2021/12/10 06:32:33;;;;;;;2.23;1.20;;;;;;;1.18;63.53;96440.88;5072021;28;20186;-55
2021/12/10 06:35:00;;;;;;;2.57;1.50;;;;;;;1.23;64.18;96445.59;5071970;28;20190;-54
2021/12/10 06:37:27;;;;;;;2.30;1.30;;;;;;;1.16;63.69;96435.06;5071954;28;20276;-56
2021/12/10 06:39:53;;;;;;;5.53;1.57;;;;;;;1.11;65.25;96440.66;5071234;28;20183;-57
2021/12/10 06:42:21;;;;;;;3.95;1.70;;;;;;;1.18;64.35;96439.13;5071503;28;20475;-57
2021/12/10 06:44:48;;;;;;;3.50;1.60;;;;;;;1.16;63.96;96438.47;5070666;28;20548;-56
2021/12/10 06:47:15;;;;;;;3.00;1.60;;;;;;;1.24;63.19;96442.06;5070453;28;20269;-56
2021/12/10 06:49:42;;;;;;;4.57;1.63;;;;;;;1.25;63.09;96438.56;5070921;28;20202;-57
2021/12/10 06:52:09;;;;;;;2.20;1.30;;;;;;;1.18;63.42;96439.13;5071608;28;20193;-57
2021/12/10 06:54:38;;;;;;;2.50;1.20;;;;;;;1.16;62.80;96428.19;5071793;28;20202;-55
2021/12/10 06:57:05;;;;;;;3.73;1.67;;;;;;;1.20;63.13;96420.19;5071710;28;20613;-54
2021/12/10 06:59:33;;;;;;;2.10;1.40;;;;;;;1.16;63.33;96423.06;5071688;28;20191;-57
2021/12/10 07:02:00;;;;;;;1.60;1.27;;;;;;;1.17;62.94;96421.28;5071513;28;20206;-57
2021/12/10 07:04:27;;;;;;;1.80;1.20;;;;;;;1.23;61.70;96428.41;5070542;28;20189;-57
2021/12/10 07:06:55;;;;;;;2.80;1.20;;;;;;;1.27;61.22;96423.78;5071759;28;20179;-54
2021/12/10 07:09:24;;;;;;;2.57;1.17;;;;;;;1.34;61.02;96424.81;5071806;28;20560;-56
2021/12/10 07:11:54;;;;;;;2.60;1.20;;;;;;;1.35;62.08;96434.16;5069558;28;20214;-53
2021/12/10 07:14:21;;;;;;;1.90;1.40;;;;;;;1.31;61.96;96425.91;5071855;28;20256;-59
2021/12/10 07:16:50;;;;;;;2.20;1.27;;;;;;;1.27;61.87;96437.44;5074960;28;20585;-57
2021/12/10 07:19:20;;;;;;;2.77;1.40;;;;;;;1.32;62.37;96437.81;5075656;28;20566;-56
2021/12/10 07:21:47;;;;;;;4.10;1.67;;;;;;;1.33;62.50;96438.63;5074711;28;20200;-57
2021/12/10 07:24:17;;;;;;;5.37;1.60;;;;;;;1.37;62.24;96439.13;5075747;28;20194;-57
2021/12/10 07:26:45;;;;;;;2.30;1.43;;;;;;;1.44;61.77;96453.00;5074241;28;20194;-54
2021/12/10 07:29:13;;;;;;;6.90;4.90;;;;;;;1.44;63.30;96458.97;5075464;28;20186;-53
2021/12/10 07:31:42;;;;;;;6.37;3.60;;;;;;;1.46;62.67;96463.97;5074236;28;20605;-55
2021/12/10 07:34:11;;;;;;;4.70;3.53;;;;;;;1.43;64.35;96459.09;5075264;28;20190;-53
2021/12/10 07:36:38;;;;;;;9.47;2.97;;;;;;;1.37;66.81;96459.69;5075071;28;20182;-56
2021/12/10 07:39:07;;;;;;;8.63;3.90;;;;;;;1.13;70.52;96461.06;5075283;28;20179;-56
2021/12/10 07:41:34;;;;;;;7.97;3.30;;;;;;;1.01;71.35;96470.75;5074148;28;20560;-53
2021/12/10 07:44:01;;;;;;;6.67;3.50;;;;;;;0.77;72.52;96474.66;5074999;28;20182;-56
2021/12/10 07:46:28;;;;;;;10.47;4.77;;;;;;;0.78;73.46;96472.91;5074639;28;20437;-55
2021/12/10 07:48:57;;;;;;;9.47;4.43;;;;;;;0.65;74.51;96476.59;5074953;28;20732;-54
2021/12/10 07:51:28;;;;;;;14.73;5.57;;;;;;;0.55;75.64;96483.53;5074099;28;20684;-57
2021/12/10 07:53:57;;;;;;;12.20;3.63;;;;;;;0.59;75.90;96493.34;5074853;28;20197;-53
2021/12/10 07:56:26;;;;;;;10.10;3.27;;;;;;;0.61;75.55;96490.66;5074670;28;20225;-57
2021/12/10 07:58:54;;;;;;;15.40;4.80;;;;;;;0.65;75.27;96504.84;5074823;28;20301;-56
2021/12/10 08:01:24;;;;;;;6.93;1.90;;;;;;;0.67;75.41;96515.78;5074005;28;20257;-54
2021/12/10 08:03:52;;;;;;;9.13;2.63;;;;;;;0.77;75.92;96517.50;5074700;28;20248;-54
2021/12/10 08:06:20;;;;;;;9.77;2.73;;;;;;;0.79;76.00;96515.59;5074651;28;20263;-54
2021/12/10 08:08:50;;;;;;;6.37;1.77;;;;;;;0.82;75.88;96505.06;5074564;28;20191;-54
2021/12/10 08:11:18;;;;;;;6.80;1.80;;;;;;;0.85;76.12;96502.19;5073740;28;20252;-56
2021/12/10 08:13:44;;;;;;;8.57;4.00;;;;;;;0.97;76.73;96495.09;5073351;28;20450;-53
2021/12/10 08:16:12;;;;;;;9.87;3.10;;;;;;;1.05;76.07;96491.84;5074475;28;20274;-54
2021/12/10 08:18:39;;;;;;;7.80;2.60;;;;;;;1.11;76.38;96488.66;5074337;28;20264;-56
2021/12/10 08:21:07;;;;;;;6.33;2.53;;;;;;;1.10;77.19;96477.59;5073728;28;20206;-54
2021/12/10 08:23:34;;;;;;;5.10;2.57;;;;;;;1.10;77.86;96471.63;5074267;28;20620;-56
2021/12/10 08:26:03;;;;;;;6.57;2.57;;;;;;;1.18;79.00;96469.97;5073835;28;20618;-55
2021/12/10 08:28:32;;;;;;;5.80;2.17;;;;;;;1.26;79.72;96461.53;5074256;28;20218;-53
2021/12/10 08:30:59;;;;;;;3.90;1.70;;;;;;;1.34;80.42;96458.25;5073462;28;20202;-56
2021/12/10 08:33:27;;;;;;;7.50;2.27;;;;;;;1.44;80.66;96455.59;5074153;28;20183;-53
2021/12/10 08:35:58;;;;;;;5.03;2.33;;;;;;;1.40;81.83;96456.84;5074011;28;20273;-55
2021/12/10 08:38:25;;;;;;;11.77;4.27;;;;;;;1.24;80.76;96450.56;5074171;28;20214;-56
2021/12/10 08:40:57;;;;;;;12.60;5.63;;;;;;;1.37;81.33;96446.84;5073179;28;20202;-56
2021/12/10 08:43:26;;;;;;;19.27;12.73;;;;;;;1.05;84.83;96443.81;5074063;28;20648;-53
2021/12/10 08:45:53;;;;;;;20.13;11.17;;;;;;;1.12;84.80;96434.56;5073933;28;20229;-56
2021/12/10 08:48:20;;;;;;;10.53;3.47;;;;;;;1.16;85.15;96429.94;5073943;28;20319;-53
2021/12/10 08:50:48;;;;;;;10.03;4.70;;;;;;;1.17;85.03;96414.38;5073060;28;20206;-58
2021/12/10 08:53:15;;;;;;;9.77;3.97;;;;;;;1.25;84.08;96418.00;5073808;28;20201;-55
2021/12/10 08:55:44;;;;;;;10.00;3.30;;;;;;;1.24;84.93;96412.03;5073697;28;20190;-53
2021/12/10 08:58:12;;;;;;;20.30;11.80;;;;;;;1.27;84.91;96403.22;5073646;28;20282;-57
2021/12/10 09:00:42;;;;;;;8.70;5.17;;;;;;;1.31;85.64;96400.19;5072781;28;20208;-54
2021/12/10 09:03:09;;;;;;;9.77;4.87;;;;;;;1.15;86.14;96393.16;5073533;28;20648;-56
2021/12/10 09:05:37;;;;;;;8.77;5.37;;;;;;;1.11;85.25;96388.44;5073577;28;20217;-54
2021/12/10 09:08:06;;;;;;;11.40;4.83;;;;;;;1.17;86.81;96380.97;5073454;28;20183;-55
2021/12/10 09:10:35;;;;;;;9.60;6.00;;;;;;;1.27;86.19;96385.25;5071251;28;20240;-56
2021/12/10 09:13:10;;;;;;;16.57;4.97;;;;;;;1.23;85.76;96379.56;5073415;28;20267;-56
2021/12/10 09:15:37;;;;;;;12.53;5.40;;;;;;;1.06;87.06;96385.53;5073429;28;20186;-56
2021/12/10 09:18:06;;;;;;;8.70;5.23;;;;;;;1.10;86.39;96381.69;5073543;28;20699;-57
2021/12/10 09:20:37;;;;;;;14.70;5.47;;;;;;;1.16;86.17;96378.53;5072558;28;20248;-55
2021/12/10 09:23:05;;;;;;;11.67;4.37;;;;;;;1.10;87.27;96372.25;5073199;28;20190;-54
2021/12/10 09:25:32;;;;;;;13.90;4.40;;;;;;;1.07;87.57;96376.84;5071341;28;20252;-53
2021/12/10 09:27:59;;;;;;;14.13;5.53;;;;;;;0.94;88.11;96372.91;5065047;28;20273;-56
2021/12/10 09:30:28;;;;;;;12.90;5.17;;;;;;;0.94;87.13;96374.66;5071486;28;20301;-54
2021/12/10 09:32:55;;;;;;;10.73;4.73;;;;;;;0.94;87.40;96367.78;5071779;28;20674;-53
2021/12/10 09:35:27;;;;;;;8.57;4.60;;;;;;;0.78;88.00;96367.59;5072085;28;20240;-53
2021/12/10 09:37:55;;;;;;;7.37;4.53;;;;;;;0.75;89.04;96362.75;5072039;28;20302;-56
2021/12/10 09:40:25;;;;;;;12.33;5.27;;;;;;;0.72;89.37;96354.38;5071600;28;20248;-52
2021/12/10 09:42:53;;;;;;;14.03;5.50;;;;;;;1.21;99.79;96350.63;5064913;28;20189;-53
2021/12/10 09:45:23;;;;;;;12.27;5.90;;;;;;;1.12;100.00;96343.81;5068781;28;20279;-53
2021/12/10 09:47:50;;;;;;;10.27;5.07;;;;;;;1.03;98.94;96348.09;5071726;28;20268;-56
2021/12/10 09:50:19;;;;;;;11.80;6.23;;;;;;;0.82;94.25;96349.19;5071783;28;20206;-54
2021/12/10 09:52:47;;;;;;;15.87;7.67;;;;;;;0.92;91.94;96348.31;5063177;28;20262;-53
2021/12/10 09:55:16;;;;;;;13.97;7.37;;;;;;;0.97;91.35;96341.78;5052204;28;20533;-53
2021/12/10 09:57:45;;;;;;;8.70;4.70;;;;;;;0.95;89.90;96337.75;5050461;28;20226;-56
2021/12/10 10:00:17;;;;;;;10.97;5.03;;;;;;;0.87;90.24;96325.63;5051514;28;20685;-52
2021/12/10 10:02:44;;;;;;;12.53;6.00;;;;;;;0.75;90.23;96322.47;5052331;28;20193;-58
2021/12/10 10:05:11;;;;;;;13.10;6.87;;;;;;;0.66;91.97;96326.72;5070482;28;20536;-56
2021/12/10 10:07:38;;;;;;;16.37;8.37;;;;;;;0.73;91.93;96303.81;5072008;28;20229;-58
2021/12/10 10:10:11;;;;;;;12.40;7.63;;;;;;;0.76;93.22;96315.59;5069940;28;20321;-57
2021/12/10 10:12:42;;;;;;;16.83;10.57;;;;;;;0.68;92.54;96318.88;5072080;28;20265;-58
2021/12/10 10:15:13;;;;;;;19.63;9.90;;;;;;;0.65;93.61;96303.75;5070822;28;20593;-58
2021/12/10 10:17:40;;;;;;;23.43;14.73;;;;;;;0.52;93.61;96304.94;5071815;28;20301;-57
2021/12/10 10:20:10;;;;;;;15.80;9.60;;;;;;;0.58;93.56;96303.53;5071016;28;20205;-57
2021/12/10 10:22:37;;;;;;;16.30;9.30;;;;;;;0.58;94.30;96304.31;5072348;28;20185;-59
2021/12/10 10:25:08;;;;;;;15.03;8.83;;;;;;;0.61;95.14;96294.72;5072073;28;20190;-58
2021/12/10 10:27:38;;;;;;;18.63;10.17;;;;;;;0.75;93.77;96298.56;5072014;28;20205;-59
2021/12/10 10:30:10;;;;;;;13.20;7.70;;;;;;;0.75;93.61;96299.34;5070997;28;20206;-58
2021/12/10 10:32:43;;;;;;;26.33;17.47;;;;;;;0.76;94.71;96297.59;5071866;28;20269;-58
2021/12/10 10:35:17;;;;;;;19.17;10.10;;;;;;;0.88;93.96;96286.16;5071810;28;20192;-58
2021/12/10 10:37:44;;;;;;;21.10;11.13;;;;;;;1.00;93.46;96292.69;5071720;28;20200;-58
2021/12/10 10:40:17;;;;;;;19.33;12.13;;;;;;;1.13;93.28;96296.59;5070883;28;20239;-57
2021/12/10 10:42:44;;;;;;;18.83;9.60;;;;;;;1.16;92.64;96298.88;5071670;28;20190;-58
2021/12/10 10:45:17;;;;;;;20.33;10.90;;;;;;;1.24;92.70;96290.44;5052632;28;20226;-58
2021/12/10 10:47:44;;;;;;;16.00;8.27;;;;;;;1.31;91.94;96299.97;5051669;28;20236;-56
2021/12/10 10:50:14;;;;;;;15.67;8.77;;;;;;;1.42;90.34;96292.97;5050686;28;20583;-59
2021/12/10 10:52:43;;;;;;;16.83;8.37;;;;;;;1.43;91.00;96302.28;5051407;28;20194;-59
2021/12/10 10:55:25;;;;;;;25.33;13.50;;;;;;;1.46;91.13;96289.13;5051492;28;20198;-58
2021/12/10 10:57:56;;;;;;;20.70;9.80;;;;;;;1.58;91.15;96300.00;5051271;28;20304;-59
2021/12/10 11:00:32;;;;;;;16.93;9.60;;;;;;;1.53;90.24;96294.50;5050727;28;20227;-59
2021/12/10 11:03:03;;;;;;;17.50;9.67;;;;;;;1.47;89.87;96298.47;5051642;28;20270;-58
2021/12/10 11:05:32;;;;;;;16.30;9.20;;;;;;;1.30;91.34;96289.84;5051372;28;20183;-58
2021/12/10 11:08:04;;;;;;;18.70;9.33;;;;;;;1.28;91.59;96296.91;5060267;28;20186;-59
2021/12/10 11:10:36;;;;;;;17.97;9.83;;;;;;;1.19;91.03;96293.44;5063916;28;20319;-58
2021/12/10 11:13:20;;;;;;;16.93;9.33;;;;;;;1.21;91.23;96298.44;5062933;28;20195;-60
2021/12/10 11:15:59;;;;;;;18.23;8.53;;;;;;;1.10;91.72;96300.28;5064033;28;20590;-59
2021/12/10 11:18:27;;;;;;;12.07;7.40;;;;;;;0.92;92.79;96296.94;5061153;28;20594;-59
2021/12/10 11:20:55;;;;;;;12.20;7.37;;;;;;;0.98;92.57;96294.59;5058744;28;20225;-59
2021/12/10 11:23:26;;;;;;;14.93;7.20;;;;;;;0.88;92.21;96294.66;5050977;28;20764;-59
2021/12/10 11:25:56;;;;;;;12.00;7.43;;;;;;;0.81;93.43;96291.06;5051198;28;20559;-60
2021/12/10 11:28:26;;;;;;;10.27;7.40;;;;;;;0.85;92.94;96296.72;5051120;28;20290;-59
2021/12/10 11:31:03;;;;;;;11.13;7.60;;;;;;;0.95;92.95;96297.47;5049240;28;20218;-60
2021/12/10 11:33:32;;;;;;;34.50;21.40;;;;;;;0.94;93.15;96300.97;5051435;28;20199;-59
2021/12/10 11:36:05;;;;;;;14.67;8.10;;;;;;;1.16;93.27;96306.59;5055218;28;20187;-59
2021/12/10 11:38:34;;;;;;;12.73;8.20;;;;;;;1.17;92.14;96303.06;5070999;28;20206;-58
2021/12/10 11:41:07;;;;;;;13.23;8.97;;;;;;;1.10;91.63;96295.16;5070129;28;20211;-59
2021/12/10 11:43:52;;;;;;;14.93;8.07;;;;;;;1.25;92.08;96297.19;5066976;28;20210;-58
2021/12/10 11:46:43;;;;;;;12.83;7.33;;;;;;;1.37;90.68;96296.00;5050948;28;20270;-59
2021/12/10 11:49:17;;;;;;;24.10;9.87;;;;;;;1.25;89.87;96287.72;5049938;28;20233;-54
2021/12/10 11:51:46;;;;;;;16.43;9.43;;;;;;;1.35;90.87;96291.94;5050371;28;20203;-55
2021/12/10 11:54:23;;;;;;;21.10;11.07;;;;;;;1.37;90.10;96293.44;5050777;28;20278;-54